sensor_id;sensor_type;location;lat;lon;timestamp;pressure;altitude;pressure_sealevel;temperature;humidity
21153;BME280;10734;44.792;20.482;2023-02-19T03:13:12;100417.53;;;9.24;nan
21153;BME280;10734;44.792;20.482;2023-02-19T03:16:36;100412.06;;;9.26;nan
21153;BME280;10734;44.792;20.482;2023-02-19T03:19:18;100405.94;;;9.22;nan
21153;BME280;10734;44.792;20.482;2023-02-19T03:21:53;100404.34;;;9.18;nan
21153;BME280;10734;44.792;20.482;2023-02-19T03:24:24;100415.22;;;9.15;nan
21153;BME280;10734;44.792;20.482;2023-02-19T03:27:13;100407.09;;;9.16;nan
21153;BME280;10734;44.792;20.482;2023-02-19T03:29:42;100402.53;;;9.18;nan
21153;BME280;10734;44.792;20.482;2023-02-19T03:32:18;100397.22;;;9.17;nan
21153;BME280;10734;44.792;20.482;2023-02-19T03:34:56;100408.78;;;9.19;nan
21153;BME280;10734;44.792;20.482;2023-02-19T03:37:29;100412.06;;;9.26;nan
21153;BME280;10734;44.792;20.482;2023-02-19T03:39:58;100423.53;;;9.29;nan
21153;BME280;10734;44.792;20.482;2023-02-19T03:45:36;100425.38;;;9.29;nan
21153;BME280;10734;44.792;20.482;2023-02-19T03:48:22;100426.38;;;9.26;nan
21153;BME280;10734;44.792;20.482;2023-02-19T03:51:31;100418.16;;;9.29;nan
21153;BME280;10734;44.792;20.482;2023-02-19T03:54:30;100427.19;;;9.28;nan
21153;BME280;10734;44.792;20.482;2023-02-19T03:57:06;100422.53;;;9.32;nan
21153;BME280;10734;44.792;20.482;2023-02-19T03:59:45;100416.28;;;9.31;nan
21153;BME280;10734;44.792;20.482;2023-02-19T04:05:26;100412.88;;;9.28;nan
21153;BME280;10734;44.792;20.482;2023-02-19T04:07:58;100415.84;;;9.21;nan
21153;BME280;10734;44.792;20.482;2023-02-19T04:10:26;100416.63;;;9.23;nan
21153;BME280;10734;44.792;20.482;2023-02-19T04:13:08;100417.31;;;9.29;nan
21153;BME280;10734;44.792;20.482;2023-02-19T04:15:39;100414.63;;;9.29;nan
21153;BME280;10734;44.792;20.482;2023-02-19T04:18:11;100419.13;;;9.28;nan
21153;BME280;10734;44.792;20.482;2023-02-19T04:20:42;100422.22;;;9.19;nan
21153;BME280;10734;44.792;20.482;2023-02-19T04:23:11;100413.63;;;9.11;nan
21153;BME280;10734;44.792;20.482;2023-02-19T04:25:41;100411.25;;;9.03;nan
21153;BME280;10734;44.792;20.482;2023-02-19T04:28:09;100415.91;;;8.99;nan
21153;BME280;10734;44.792;20.482;2023-02-19T04:30:38;100424.25;;;8.93;nan
21153;BME280;10734;44.792;20.482;2023-02-19T04:33:05;100425.44;;;8.86;nan
21153;BME280;10734;44.792;20.482;2023-02-19T06:40:48;100397.13;;;9.39;nan
21153;BME280;10734;44.792;20.482;2023-02-19T06:43:15;100396.47;;;9.53;nan
21153;BME280;10734;44.792;20.482;2023-02-19T06:45:41;100401.13;;;9.68;nan
21153;BME280;10734;44.792;20.482;2023-02-19T06:48:08;100405.88;;;9.82;nan
21153;BME280;10734;44.792;20.482;2023-02-19T06:50:35;100397.00;;;9.99;nan
21153;BME280;10734;44.792;20.482;2023-02-19T06:53:01;100389.13;;;10.13;nan
21153;BME280;10734;44.792;20.482;2023-02-19T06:55:28;100386.72;;;10.26;nan
21153;BME280;10734;44.792;20.482;2023-02-19T06:57:55;100387.38;;;10.48;nan
21153;BME280;10734;44.792;20.482;2023-02-19T07:00:22;100383.22;;;10.60;nan
21153;BME280;10734;44.792;20.482;2023-02-19T07:02:49;100385.81;;;10.79;nan
21153;BME280;10734;44.792;20.482;2023-02-19T07:05:22;100383.28;;;10.76;nan
21153;BME280;10734;44.792;20.482;2023-02-19T07:07:49;100385.09;;;10.75;nan
21153;BME280;10734;44.792;20.482;2023-02-19T07:10:16;100385.22;;;10.74;nan
21153;BME280;10734;44.792;20.482;2023-02-19T07:12:42;100383.13;;;10.79;nan
21153;BME280;10734;44.792;20.482;2023-02-19T07:15:09;100385.97;;;10.93;nan
21153;BME280;10734;44.792;20.482;2023-02-19T07:17:36;100391.88;;;11.17;nan
21153;BME280;10734;44.792;20.482;2023-02-19T07:20:03;100392.75;;;11.35;nan
21153;BME280;10734;44.792;20.482;2023-02-19T07:22:30;100397.06;;;11.37;nan
21153;BME280;10734;44.792;20.482;2023-02-19T07:24:56;100399.47;;;11.59;nan
21153;BME280;10734;44.792;20.482;2023-02-19T07:27:23;100391.84;;;11.83;nan
21153;BME280;10734;44.792;20.482;2023-02-19T07:29:50;100384.59;;;11.86;nan
21153;BME280;10734;44.792;20.482;2023-02-19T07:32:16;100386.91;;;11.92;nan
21153;BME280;10734;44.792;20.482;2023-02-19T07:34:43;100385.13;;;11.92;nan
21153;BME280;10734;44.792;20.482;2023-02-19T07:37:09;100381.69;;;11.89;nan
21153;BME280;10734;44.792;20.482;2023-02-19T07:39:36;100381.97;;;11.84;nan
21153;BME280;10734;44.792;20.482;2023-02-19T07:42:03;100384.31;;;11.90;nan
21153;BME280;10734;44.792;20.482;2023-02-19T07:44:29;100385.25;;;12.05;nan
21153;BME280;10734;44.792;20.482;2023-02-19T07:46:56;100385.09;;;12.08;nan
21153;BME280;10734;44.792;20.482;2023-02-19T07:49:23;100386.19;;;12.36;nan
21153;BME280;10734;44.792;20.482;2023-02-19T07:51:50;100382.78;;;12.48;nan
21153;BME280;10734;44.792;20.482;2023-02-19T07:54:16;100388.53;;;12.42;nan
21153;BME280;10734;44.792;20.482;2023-02-19T07:56:43;100382.81;;;12.32;nan
21153;BME280;10734;44.792;20.482;2023-02-19T07:59:10;100379.66;;;12.40;nan
21153;BME280;10734;44.792;20.482;2023-02-19T08:01:37;100379.38;;;12.60;nan
21153;BME280;10734;44.792;20.482;2023-02-19T08:04:22;100382.16;;;12.43;nan
21153;BME280;10734;44.792;20.482;2023-02-19T08:06:49;100378.56;;;12.12;nan
21153;BME280;10734;44.792;20.482;2023-02-19T08:09:15;100374.53;;;12.35;nan
21153;BME280;10734;44.792;20.482;2023-02-19T08:11:42;100368.25;;;12.50;nan
21153;BME280;10734;44.792;20.482;2023-02-19T08:14:27;100376.22;;;12.82;nan
21153;BME280;10734;44.792;20.482;2023-02-19T08:16:54;100371.38;;;12.73;nan
21153;BME280;10734;44.792;20.482;2023-02-19T08:19:22;100374.81;;;12.91;nan
21153;BME280;10734;44.792;20.482;2023-02-19T08:21:49;100365.31;;;12.84;nan
21153;BME280;10734;44.792;20.482;2023-02-19T08:24:16;100359.66;;;12.88;nan
21153;BME280;10734;44.792;20.482;2023-02-19T08:26:42;100361.69;;;12.54;nan
21153;BME280;10734;44.792;20.482;2023-02-19T08:29:09;100353.09;;;12.62;nan
21153;BME280;10734;44.792;20.482;2023-02-19T08:31:36;100353.94;;;12.48;nan
21153;BME280;10734;44.792;20.482;2023-02-19T08:34:03;100346.00;;;12.45;nan
21153;BME280;10734;44.792;20.482;2023-02-19T08:36:30;100342.66;;;12.56;nan
21153;BME280;10734;44.792;20.482;2023-02-19T08:38:57;100343.81;;;12.52;nan
21153;BME280;10734;44.792;20.482;2023-02-19T08:41:24;100339.75;;;12.75;nan
21153;BME280;10734;44.792;20.482;2023-02-19T08:43:51;100339.06;;;12.71;nan
21153;BME280;10734;44.792;20.482;2023-02-19T08:46:17;100332.81;;;13.14;nan
21153;BME280;10734;44.792;20.482;2023-02-19T08:48:44;100332.94;;;13.55;nan
21153;BME280;10734;44.792;20.482;2023-02-19T08:51:11;100319.63;;;13.52;nan
21153;BME280;10734;44.792;20.482;2023-02-19T08:53:39;100327.75;;;13.52;nan
21153;BME280;10734;44.792;20.482;2023-02-19T08:56:08;100313.22;;;13.67;nan
21153;BME280;10734;44.792;20.482;2023-02-19T08:58:35;100318.75;;;13.52;nan
21153;BME280;10734;44.792;20.482;2023-02-19T09:01:10;100318.53;;;13.55;nan
21153;BME280;10734;44.792;20.482;2023-02-19T09:03:37;100334.72;;;13.42;nan
21153;BME280;10734;44.792;20.482;2023-02-19T09:06:05;100314.69;;;13.59;nan
21153;BME280;10734;44.792;20.482;2023-02-19T09:08:31;100309.22;;;13.87;nan
21153;BME280;10734;44.792;20.482;2023-02-19T09:11:03;100307.22;;;13.77;nan
21153;BME280;10734;44.792;20.482;2023-02-19T09:13:30;100307.69;;;13.83;nan
21153;BME280;10734;44.792;20.482;2023-02-19T09:15:57;100303.38;;;14.20;nan
21153;BME280;10734;44.792;20.482;2023-02-19T09:18:24;100306.78;;;13.97;nan
21153;BME280;10734;44.792;20.482;2023-02-19T09:20:51;100303.28;;;14.22;nan
21153;BME280;10734;44.792;20.482;2023-02-19T09:23:18;100304.13;;;14.23;nan
21153;BME280;10734;44.792;20.482;2023-02-19T09:25:45;100301.91;;;13.61;nan
21153;BME280;10734;44.792;20.482;2023-02-19T09:28:11;100293.88;;;14.28;nan
21153;BME280;10734;44.792;20.482;2023-02-19T09:30:38;100300.59;;;14.87;nan
21153;BME280;10734;44.792;20.482;2023-02-19T09:33:05;100292.56;;;14.73;nan
21153;BME280;10734;44.792;20.482;2023-02-19T09:35:32;100304.75;;;15.06;nan
21153;BME280;10734;44.792;20.482;2023-02-19T09:37:59;100293.69;;;14.96;nan
21153;BME280;10734;44.792;20.482;2023-02-19T09:40:29;100302.66;;;15.35;nan
21153;BME280;10734;44.792;20.482;2023-02-19T09:42:56;100291.34;;;15.54;nan
21153;BME280;10734;44.792;20.482;2023-02-19T09:45:24;100296.69;;;15.17;nan
21153;BME280;10734;44.792;20.482;2023-02-19T09:47:56;100309.19;;;15.07;nan
21153;BME280;10734;44.792;20.482;2023-02-19T09:50:33;100300.13;;;15.70;nan
21153;BME280;10734;44.792;20.482;2023-02-19T09:53:04;100293.66;;;16.32;nan
21153;BME280;10734;44.792;20.482;2023-02-19T09:55:41;100296.09;;;16.83;nan
21153;BME280;10734;44.792;20.482;2023-02-19T09:58:24;100296.84;;;16.02;nan
21153;BME280;10734;44.792;20.482;2023-02-19T10:00:54;100304.41;;;16.09;nan
21153;BME280;10734;44.792;20.482;2023-02-19T10:03:25;100298.06;;;15.98;nan
21153;BME280;10734;44.792;20.482;2023-02-19T10:06:24;100299.75;;;16.12;nan
21153;BME280;10734;44.792;20.482;2023-02-19T10:08:52;100296.56;;;15.94;nan
21153;BME280;10734;44.792;20.482;2023-02-19T10:11:21;100292.03;;;15.81;nan
21153;BME280;10734;44.792;20.482;2023-02-19T10:14:20;100290.78;;;16.82;nan
21153;BME280;10734;44.792;20.482;2023-02-19T10:16:48;100283.00;;;16.99;nan
21153;BME280;10734;44.792;20.482;2023-02-19T10:19:15;100277.78;;;16.15;nan
21153;BME280;10734;44.792;20.482;2023-02-19T10:21:43;100281.81;;;16.68;nan
21153;BME280;10734;44.792;20.482;2023-02-19T10:24:18;100269.50;;;16.98;nan
21153;BME280;10734;44.792;20.482;2023-02-19T10:26:46;100264.31;;;17.29;nan
21153;BME280;10734;44.792;20.482;2023-02-19T10:29:13;100259.38;;;17.34;nan
21153;BME280;10734;44.792;20.482;2023-02-19T10:31:39;100254.41;;;17.61;nan
21153;BME280;10734;44.792;20.482;2023-02-19T10:34:16;100243.16;;;18.09;nan
21153;BME280;10734;44.792;20.482;2023-02-19T10:36:46;100257.06;;;18.27;nan
21153;BME280;10734;44.792;20.482;2023-02-19T10:39:48;100250.97;;;18.03;nan
21153;BME280;10734;44.792;20.482;2023-02-19T10:42:18;100248.81;;;17.63;nan
21153;BME280;10734;44.792;20.482;2023-02-19T10:44:54;100251.13;;;18.01;nan
21153;BME280;10734;44.792;20.482;2023-02-19T10:47:25;100242.56;;;18.06;nan
21153;BME280;10734;44.792;20.482;2023-02-19T10:49:56;100239.56;;;18.83;nan
21153;BME280;10734;44.792;20.482;2023-02-19T10:52:31;100232.94;;;18.76;nan
21153;BME280;10734;44.792;20.482;2023-02-19T10:57:40;100227.88;;;17.09;nan
21153;BME280;10734;44.792;20.482;2023-02-19T11:02:41;100217.13;;;18.37;nan
21153;BME280;10734;44.792;20.482;2023-02-19T11:07:35;100230.47;;;18.19;nan
21153;BME280;10734;44.792;20.482;2023-02-19T11:10:04;100210.97;;;18.03;nan
21153;BME280;10734;44.792;20.482;2023-02-19T11:12:33;100210.66;;;17.85;nan
21153;BME280;10734;44.792;20.482;2023-02-19T11:15:12;100218.19;;;18.25;nan
21153;BME280;10734;44.792;20.482;2023-02-19T11:17:53;100204.63;;;18.56;nan
21153;BME280;10734;44.792;20.482;2023-02-19T11:20:20;100214.59;;;17.92;nan
21153;BME280;10734;44.792;20.482;2023-02-19T11:22:48;100212.22;;;18.31;nan
21153;BME280;10734;44.792;20.482;2023-02-19T11:28:28;100208.91;;;18.28;nan
21153;BME280;10734;44.792;20.482;2023-02-19T11:33:44;100203.94;;;18.63;nan
21153;BME280;10734;44.792;20.482;2023-02-19T11:38:57;100203.38;;;19.11;nan
21153;BME280;10734;44.792;20.482;2023-02-19T11:44:13;100185.69;;;17.69;nan
21153;BME280;10734;44.792;20.482;2023-02-19T11:54:48;100172.66;;;18.79;nan
21153;BME280;10734;44.792;20.482;2023-02-19T11:57:47;100166.81;;;18.93;nan
21153;BME280;10734;44.792;20.482;2023-02-19T12:00:29;100164.63;;;18.66;nan
21153;BME280;10734;44.792;20.482;2023-02-19T12:03:16;100166.25;;;18.27;nan
21153;BME280;10734;44.792;20.482;2023-02-19T12:16:42;100152.63;;;18.06;nan
21153;BME280;10734;44.792;20.482;2023-02-19T12:22:03;100152.53;;;16.87;nan
21153;BME280;10734;44.792;20.482;2023-02-19T12:27:37;100128.69;;;16.68;nan
21153;BME280;10734;44.792;20.482;2023-02-19T12:35:43;100135.09;;;16.44;nan
21153;BME280;10734;44.792;20.482;2023-02-19T12:40:53;100109.78;;;17.32;nan
21153;BME280;10734;44.792;20.482;2023-02-19T12:43:24;100111.78;;;17.30;nan
21153;BME280;10734;44.792;20.482;2023-02-19T12:46:00;100117.19;;;17.41;nan
21153;BME280;10734;44.792;20.482;2023-02-19T12:48:35;100107.56;;;17.69;nan
21153;BME280;10734;44.792;20.482;2023-02-19T12:51:16;100109.94;;;17.95;nan
21153;BME280;10734;44.792;20.482;2023-02-19T12:53:55;100111.13;;;18.23;nan
21153;BME280;10734;44.792;20.482;2023-02-19T12:56:33;100105.59;;;18.04;nan
21153;BME280;10734;44.792;20.482;2023-02-19T12:59:10;100120.28;;;17.48;nan
21153;BME280;10734;44.792;20.482;2023-02-19T13:01:51;100104.34;;;17.43;nan
21153;BME280;10734;44.792;20.482;2023-02-19T13:04:27;100091.22;;;18.02;nan
21153;BME280;10734;44.792;20.482;2023-02-19T13:07:02;100088.41;;;17.92;nan
21153;BME280;10734;44.792;20.482;2023-02-19T13:09:45;100088.38;;;17.39;nan
21153;BME280;10734;44.792;20.482;2023-02-19T13:12:20;100089.09;;;17.09;nan
21153;BME280;10734;44.792;20.482;2023-02-19T13:15:00;100087.97;;;16.44;nan
21153;BME280;10734;44.792;20.482;2023-02-19T13:17:36;100083.25;;;15.90;nan
21153;BME280;10734;44.792;20.482;2023-02-19T13:31:33;100094.88;;;15.44;nan
21153;BME280;10734;44.792;20.482;2023-02-19T13:36:45;100083.88;;;15.45;nan
21153;BME280;10734;44.792;20.482;2023-02-19T13:39:15;100095.31;;;15.37;nan
21153;BME280;10734;44.792;20.482;2023-02-19T13:41:49;100102.88;;;15.45;nan
21153;BME280;10734;44.792;20.482;2023-02-19T13:44:19;100092.50;;;15.63;nan
21153;BME280;10734;44.792;20.482;2023-02-19T13:46:48;100092.31;;;15.53;nan
21153;BME280;10734;44.792;20.482;2023-02-19T13:52:00;100083.94;;;15.80;nan
21153;BME280;10734;44.792;20.482;2023-02-19T13:54:30;100091.63;;;15.87;nan
21153;BME280;10734;44.792;20.482;2023-02-19T13:57:27;100083.88;;;15.93;nan
21153;BME280;10734;44.792;20.482;2023-02-19T13:59:56;100075.88;;;16.14;nan
21153;BME280;10734;44.792;20.482;2023-02-19T14:02:27;100084.88;;;16.26;nan
21153;BME280;10734;44.792;20.482;2023-02-19T14:05:05;100067.63;;;16.38;nan
21153;BME280;10734;44.792;20.482;2023-02-19T14:07:50;100068.84;;;16.68;nan
21153;BME280;10734;44.792;20.482;2023-02-19T14:10:48;100073.41;;;16.67;nan
21153;BME280;10734;44.792;20.482;2023-02-19T14:19:42;100077.34;;;16.18;nan
21153;BME280;10734;44.792;20.482;2023-02-19T14:25:26;100103.59;;;15.95;nan
21153;BME280;10734;44.792;20.482;2023-02-19T14:33:31;100091.94;;;15.71;nan
21153;BME280;10734;44.792;20.482;2023-02-19T14:36:19;100091.50;;;15.88;nan
21153;BME280;10734;44.792;20.482;2023-02-19T14:38:54;100099.59;;;15.77;nan
21153;BME280;10734;44.792;20.482;2023-02-19T14:41:22;100103.06;;;15.79;nan
21153;BME280;10734;44.792;20.482;2023-02-19T14:43:51;100100.56;;;15.76;nan
21153;BME280;10734;44.792;20.482;2023-02-19T14:46:30;100104.66;;;15.70;nan
21153;BME280;10734;44.792;20.482;2023-02-19T14:49:35;100107.38;;;15.81;nan
21153;BME280;10734;44.792;20.482;2023-02-19T14:52:05;100117.25;;;15.58;nan
21153;BME280;10734;44.792;20.482;2023-02-19T14:57:01;100100.25;;;15.32;nan
21153;BME280;10734;44.792;20.482;2023-02-19T14:59:29;100104.97;;;15.18;nan
21153;BME280;10734;44.792;20.482;2023-02-19T15:02:13;100117.66;;;15.17;nan
21153;BME280;10734;44.792;20.482;2023-02-19T15:04:42;100111.84;;;14.98;nan
21153;BME280;10734;44.792;20.482;2023-02-19T15:07:14;100107.78;;;14.92;nan
21153;BME280;10734;44.792;20.482;2023-02-19T15:09:46;100106.44;;;14.98;nan
21153;BME280;10734;44.792;20.482;2023-02-19T15:12:20;100111.69;;;14.88;nan
21153;BME280;10734;44.792;20.482;2023-02-19T15:14:48;100107.34;;;14.85;nan
21153;BME280;10734;44.792;20.482;2023-02-19T15:17:24;100114.09;;;14.67;nan
21153;BME280;10734;44.792;20.482;2023-02-19T15:19:52;100110.22;;;14.58;nan
21153;BME280;10734;44.792;20.482;2023-02-19T15:22:24;100110.00;;;14.61;nan
21153;BME280;10734;44.792;20.482;2023-02-19T15:24:51;100100.69;;;14.53;nan
21153;BME280;10734;44.792;20.482;2023-02-19T15:27:20;100119.34;;;14.57;nan
21153;BME280;10734;44.792;20.482;2023-02-19T15:29:50;100119.44;;;14.56;nan
21153;BME280;10734;44.792;20.482;2023-02-19T15:32:24;100117.47;;;14.45;nan
21153;BME280;10734;44.792;20.482;2023-02-19T15:34:59;100116.16;;;14.38;nan
21153;BME280;10734;44.792;20.482;2023-02-19T15:37:30;100119.31;;;14.32;nan
21153;BME280;10734;44.792;20.482;2023-02-19T15:40:01;100123.22;;;14.28;nan
21153;BME280;10734;44.792;20.482;2023-02-19T15:42:31;100126.56;;;14.31;nan
21153;BME280;10734;44.792;20.482;2023-02-19T15:50:33;100144.88;;;14.15;nan
21153;BME280;10734;44.792;20.482;2023-02-19T15:53:05;100146.16;;;14.09;nan
21153;BME280;10734;44.792;20.482;2023-02-19T15:55:35;100154.59;;;14.05;nan
21153;BME280;10734;44.792;20.482;2023-02-19T15:58:27;100157.53;;;14.02;nan
21153;BME280;10734;44.792;20.482;2023-02-19T16:00:59;100150.47;;;13.99;nan
21153;BME280;10734;44.792;20.482;2023-02-19T16:03:29;100154.13;;;13.85;nan
21153;BME280;10734;44.792;20.482;2023-02-19T16:06:07;100145.56;;;13.79;nan
21153;BME280;10734;44.792;20.482;2023-02-19T16:09:01;100145.53;;;13.66;nan
21153;BME280;10734;44.792;20.482;2023-02-19T16:11:51;100145.75;;;13.63;nan
21153;BME280;10734;44.792;20.482;2023-02-19T16:14:32;100144.22;;;13.59;nan
21153;BME280;10734;44.792;20.482;2023-02-19T16:19:55;100149.59;;;13.46;nan
21153;BME280;10734;44.792;20.482;2023-02-19T16:22:25;100149.22;;;13.38;nan
21153;BME280;10734;44.792;20.482;2023-02-19T16:25:04;100164.56;;;13.37;nan
21153;BME280;10734;44.792;20.482;2023-02-19T16:27:34;100163.81;;;13.35;nan
21153;BME280;10734;44.792;20.482;2023-02-19T16:32:31;100156.84;;;13.31;nan
21153;BME280;10734;44.792;20.482;2023-02-19T16:34:58;100155.34;;;13.27;nan
21153;BME280;10734;44.792;20.482;2023-02-19T16:37:38;100170.00;;;13.23;nan
21153;BME280;10734;44.792;20.482;2023-02-19T16:45:15;100181.13;;;13.18;nan
21153;BME280;10734;44.792;20.482;2023-02-19T16:47:42;100179.16;;;13.20;nan
21153;BME280;10734;44.792;20.482;2023-02-19T16:50:19;100186.34;;;13.21;nan
21153;BME280;10734;44.792;20.482;2023-02-19T16:52:53;100193.66;;;13.19;nan
21153;BME280;10734;44.792;20.482;2023-02-19T16:55:21;100184.50;;;13.22;nan
21153;BME280;10734;44.792;20.482;2023-02-19T16:57:48;100188.06;;;13.22;nan
21153;BME280;10734;44.792;20.482;2023-02-19T17:00:23;100192.50;;;13.23;nan
21153;BME280;10734;44.792;20.482;2023-02-19T17:02:53;100210.69;;;13.21;nan
21153;BME280;10734;44.792;20.482;2023-02-19T17:05:22;100208.84;;;13.22;nan
21153;BME280;10734;44.792;20.482;2023-02-19T17:07:49;100215.97;;;13.23;nan
21153;BME280;10734;44.792;20.482;2023-02-19T17:10:24;100221.50;;;13.21;nan
21153;BME280;10734;44.792;20.482;2023-02-19T17:12:52;100226.22;;;13.18;nan
21153;BME280;10734;44.792;20.482;2023-02-19T17:15:20;100238.09;;;13.15;nan
21153;BME280;10734;44.792;20.482;2023-02-19T17:17:47;100240.03;;;13.13;nan
21153;BME280;10734;44.792;20.482;2023-02-19T17:20:24;100250.84;;;13.13;nan
21153;BME280;10734;44.792;20.482;2023-02-19T17:22:54;100252.69;;;13.13;nan
21153;BME280;10734;44.792;20.482;2023-02-19T17:25:21;100263.69;;;13.10;nan
21153;BME280;10734;44.792;20.482;2023-02-19T17:27:48;100266.59;;;13.07;nan
21153;BME280;10734;44.792;20.482;2023-02-19T17:30:26;100265.72;;;13.06;nan
21153;BME280;10734;44.792;20.482;2023-02-19T17:32:53;100282.25;;;13.01;nan
21153;BME280;10734;44.792;20.482;2023-02-19T17:35:20;100280.47;;;13.00;nan
21153;BME280;10734;44.792;20.482;2023-02-19T17:37:47;100291.28;;;13.00;nan
21153;BME280;10734;44.792;20.482;2023-02-19T17:40:29;100298.47;;;13.01;nan
21153;BME280;10734;44.792;20.482;2023-02-19T17:42:59;100298.47;;;13.01;nan
21153;BME280;10734;44.792;20.482;2023-02-19T17:45:26;100294.09;;;12.99;nan
21153;BME280;10734;44.792;20.482;2023-02-19T17:47:53;100296.13;;;12.95;nan
21153;BME280;10734;44.792;20.482;2023-02-19T17:50:23;100302.28;;;12.97;nan
21153;BME280;10734;44.792;20.482;2023-02-19T17:52:50;100307.94;;;12.94;nan
21153;BME280;10734;44.792;20.482;2023-02-19T17:55:17;100309.66;;;12.95;nan
21153;BME280;10734;44.792;20.482;2023-02-19T17:57:45;100319.59;;;12.95;nan
21153;BME280;10734;44.792;20.482;2023-02-19T18:00:16;100317.84;;;12.94;nan
21153;BME280;10734;44.792;20.482;2023-02-19T18:02:44;100320.53;;;12.94;nan
21153;BME280;10734;44.792;20.482;2023-02-19T18:05:10;100317.16;;;12.90;nan
21153;BME280;10734;44.792;20.482;2023-02-19T18:07:37;100322.06;;;12.84;nan
21153;BME280;10734;44.792;20.482;2023-02-19T18:10:05;100338.41;;;12.82;nan
21153;BME280;10734;44.792;20.482;2023-02-19T18:12:32;100337.91;;;12.75;nan
21153;BME280;10734;44.792;20.482;2023-02-19T18:14:59;100332.78;;;12.71;nan
21153;BME280;10734;44.792;20.482;2023-02-19T18:17:26;100326.03;;;12.64;nan
21153;BME280;10734;44.792;20.482;2023-02-19T18:19:53;100337.75;;;12.63;nan
21153;BME280;10734;44.792;20.482;2023-02-19T18:22:20;100338.06;;;12.58;nan
21153;BME280;10734;44.792;20.482;2023-02-19T18:24:51;100344.59;;;12.54;nan
21153;BME280;10734;44.792;20.482;2023-02-19T18:27:19;100354.81;;;12.49;nan
21153;BME280;10734;44.792;20.482;2023-02-19T18:29:53;100355.34;;;12.40;nan
21153;BME280;10734;44.792;20.482;2023-02-19T18:32:22;100357.28;;;12.38;nan
21153;BME280;10734;44.792;20.482;2023-02-19T18:34:50;100355.97;;;12.29;nan
21153;BME280;10734;44.792;20.482;2023-02-19T18:37:18;100365.31;;;12.23;nan
21153;BME280;10734;44.792;20.482;2023-02-19T18:39:45;100366.53;;;12.18;nan
21153;BME280;10734;44.792;20.482;2023-02-19T18:42:13;100369.41;;;12.15;nan
21153;BME280;10734;44.792;20.482;2023-02-19T18:44:40;100361.84;;;12.05;nan
21153;BME280;10734;44.792;20.482;2023-02-19T18:47:08;100362.47;;;11.95;nan
21153;BME280;10734;44.792;20.482;2023-02-19T18:49:37;100356.28;;;11.93;nan
21153;BME280;10734;44.792;20.482;2023-02-19T18:52:04;100358.38;;;11.88;nan
21153;BME280;10734;44.792;20.482;2023-02-19T18:54:31;100358.84;;;11.78;nan
21153;BME280;10734;44.792;20.482;2023-02-19T18:56:58;100378.00;;;11.74;nan
21153;BME280;10734;44.792;20.482;2023-02-19T18:59:30;100373.63;;;11.71;nan
21153;BME280;10734;44.792;20.482;2023-02-19T19:01:57;100374.72;;;11.69;nan
21153;BME280;10734;44.792;20.482;2023-02-19T19:04:23;100361.38;;;11.66;nan
21153;BME280;10734;44.792;20.482;2023-02-19T19:06:50;100356.22;;;11.61;nan
21153;BME280;10734;44.792;20.482;2023-02-19T19:09:17;100367.13;;;11.59;nan
21153;BME280;10734;44.792;20.482;2023-02-19T19:11:43;100370.69;;;11.60;nan
21153;BME280;10734;44.792;20.482;2023-02-19T19:14:11;100374.34;;;11.59;nan
21153;BME280;10734;44.792;20.482;2023-02-19T19:16:38;100371.00;;;11.54;nan
21153;BME280;10734;44.792;20.482;2023-02-19T19:19:05;100381.19;;;11.49;nan
21153;BME280;10734;44.792;20.482;2023-02-19T19:21:32;100395.72;;;11.46;nan
21153;BME280;10734;44.792;20.482;2023-02-19T19:23:59;100411.19;;;11.43;nan
21153;BME280;10734;44.792;20.482;2023-02-19T19:26:26;100393.66;;;11.34;nan
21153;BME280;10734;44.792;20.482;2023-02-19T19:28:53;100396.72;;;11.28;nan
21153;BME280;10734;44.792;20.482;2023-02-19T19:31:20;100404.00;;;11.26;nan
21153;BME280;10734;44.792;20.482;2023-02-19T19:33:47;100404.16;;;11.23;nan
21153;BME280;10734;44.792;20.482;2023-02-19T19:36:18;100411.66;;;11.18;nan
21153;BME280;10734;44.792;20.482;2023-02-19T19:38:46;100485.34;;;11.17;nan
